createdAt,value
2022-11-04T00:02:17.007Z,9.50
2022-11-04T00:04:44.216Z,9.60
2022-11-04T00:07:31.171Z,9.90
2022-11-04T00:09:58.657Z,10.10
2022-11-04T00:12:25.674Z,10.20
2022-11-04T00:14:53.362Z,10.20
2022-11-04T00:17:21.905Z,10.20
2022-11-04T00:20:30.318Z,10.20
2022-11-04T00:23:16.692Z,10.20
2022-11-04T00:26:02.292Z,10.30
2022-11-04T00:28:44.670Z,10.30
2022-11-04T00:31:30.598Z,10.20
2022-11-04T00:33:59.349Z,10.30
2022-11-04T00:36:27.092Z,10.20
2022-11-04T00:38:54.724Z,10.00
2022-11-04T00:41:26.367Z,10.00
2022-11-04T00:43:59.378Z,10.10
2022-11-04T00:46:29.189Z,10.10
2022-11-04T00:48:56.411Z,10.10
2022-11-04T00:51:24.037Z,10.10
2022-11-04T00:53:53.129Z,10.10
2022-11-04T00:56:20.170Z,10.10
2022-11-04T00:58:47.616Z,10.10
2022-11-04T01:01:19.919Z,10.10
2022-11-04T01:03:50.519Z,10.10
2022-11-04T01:06:19.367Z,10.10
2022-11-04T01:08:47.720Z,10.00
2022-11-04T01:11:16.382Z,10.00
2022-11-04T01:13:43.651Z,10.00
2022-11-04T01:16:12.871Z,10.00
2022-11-04T01:18:41.392Z,10.10
2022-11-04T01:21:13.039Z,10.00
2022-11-04T01:23:42.589Z,10.00
2022-11-04T01:26:19.478Z,10.00
2022-11-04T01:28:47.192Z,10.00
2022-11-04T01:31:21.550Z,10.00
2022-11-04T01:33:50.721Z,10.00
2022-11-04T01:36:19.099Z,9.90
2022-11-04T01:38:46.489Z,9.90
2022-11-04T01:41:23.541Z,9.90
2022-11-04T01:43:55.163Z,9.90
2022-11-04T01:46:47.449Z,9.90
2022-11-04T01:49:33.351Z,9.80
2022-11-04T01:52:10.933Z,9.80
2022-11-04T01:54:41.795Z,9.70
2022-11-04T01:57:17.995Z,9.60
2022-11-04T01:59:46.527Z,9.40
2022-11-04T02:02:13.832Z,9.10
2022-11-04T02:04:43.927Z,8.90
2022-11-04T02:07:12.210Z,8.90
2022-11-04T02:09:41.516Z,8.70
2022-11-04T02:12:27.240Z,8.70
2022-11-04T02:14:55.756Z,9.00
2022-11-04T02:17:52.282Z,9.20
2022-11-04T02:20:41.128Z,9.30
2022-11-04T02:23:34.292Z,9.40
2022-11-04T02:26:52.892Z,9.50
2022-11-04T02:29:46.467Z,9.50
2022-11-04T02:32:34.473Z,9.40
2022-11-04T02:35:16.421Z,8.90
2022-11-04T02:38:18.603Z,8.60
2022-11-04T02:41:07.172Z,8.50
2022-11-04T02:43:40.117Z,8.60
2022-11-04T02:46:22.259Z,8.80
2022-11-04T02:49:10.348Z,8.90
2022-11-04T02:51:49.126Z,9.20
2022-11-04T02:54:19.096Z,9.30
2022-11-04T02:56:52.557Z,9.30
2022-11-04T02:59:38.185Z,9.40
2022-11-04T03:02:27.317Z,9.30
2022-11-04T03:04:58.729Z,9.30
2022-11-04T03:07:35.054Z,9.30
2022-11-04T03:10:11.200Z,9.30
2022-11-04T03:13:05.424Z,9.30
2022-11-04T03:15:38.093Z,9.40
2022-11-04T03:18:36.974Z,9.40
2022-11-04T03:21:10.876Z,9.50
2022-11-04T03:23:38.808Z,9.50
2022-11-04T03:26:25.509Z,9.20
2022-11-04T03:29:13.949Z,8.90
2022-11-04T03:32:08.145Z,8.70
2022-11-04T03:34:37.795Z,8.60
2022-11-04T03:37:05.788Z,8.70
2022-11-04T03:39:33.548Z,8.60
2022-11-04T03:42:20.342Z,8.70
2022-11-04T03:44:55.406Z,8.90
2022-11-04T03:47:27.037Z,9.20
2022-11-04T03:50:06.961Z,9.30
2022-11-04T03:52:35.881Z,9.40
2022-11-04T03:55:07.305Z,9.50
2022-11-04T03:58:00.874Z,9.40
2022-11-04T04:00:51.873Z,9.40
2022-11-04T04:03:31.332Z,9.40
2022-11-04T04:06:19.924Z,9.50
2022-11-04T04:08:55.767Z,9.40
2022-11-04T04:11:49.684Z,9.10
2022-11-04T04:14:40.367Z,8.90
2022-11-04T04:17:22.108Z,9.20
2022-11-04T04:20:20.471Z,8.90
2022-11-04T04:22:58.689Z,8.60
2022-11-04T04:25:49.116Z,8.30
2022-11-04T04:28:19.367Z,8.20
2022-11-04T04:30:46.983Z,8.30
2022-11-04T04:33:18.721Z,8.60
2022-11-04T04:35:56.175Z,8.90
2022-11-04T04:38:45.784Z,9.00
2022-11-04T04:41:47.459Z,9.10
2022-11-04T04:44:45.529Z,9.20
2022-11-04T04:47:24.643Z,8.90
2022-11-04T04:50:01.019Z,8.90
2022-11-04T04:52:34.394Z,9.10
2022-11-04T04:55:04.405Z,9.10
2022-11-04T04:57:31.765Z,9.10
2022-11-04T04:59:58.817Z,9.20
2022-11-04T05:02:26.154Z,8.90
2022-11-04T05:04:53.161Z,8.50
2022-11-04T05:07:20.398Z,8.30
2022-11-04T05:09:47.501Z,8.20
2022-11-04T05:12:14.532Z,8.10
2022-11-04T05:14:41.734Z,8.30
2022-11-04T05:17:08.768Z,8.20
2022-11-04T05:19:36.017Z,8.00
2022-11-04T05:22:03.585Z,8.00
2022-11-04T05:24:30.839Z,8.20
2022-11-04T05:26:57.785Z,8.20
2022-11-04T05:29:24.999Z,8.20
2022-11-04T05:31:52.018Z,8.30
2022-11-04T05:34:19.209Z,8.20
2022-11-04T05:36:46.115Z,8.30
2022-11-04T05:39:14.580Z,8.40
2022-11-04T05:41:41.613Z,8.50
2022-11-04T05:44:10.628Z,8.40
2022-11-04T05:46:37.623Z,8.00
2022-11-04T05:49:05.118Z,8.00
2022-11-04T05:51:32.171Z,8.00
2022-11-04T05:54:00.391Z,8.30
2022-11-04T05:56:29.183Z,8.50
2022-11-04T05:58:56.446Z,8.70
2022-11-04T06:01:31.670Z,8.80
2022-11-04T06:04:00.707Z,8.80
2022-11-04T06:06:31.870Z,8.80
2022-11-04T06:08:59.983Z,8.80
2022-11-04T06:11:29.732Z,8.80
2022-11-04T06:13:57.797Z,8.80
2022-11-04T06:16:25.279Z,8.80
2022-11-04T06:18:53.916Z,8.90
2022-11-04T06:21:29.018Z,8.70
2022-11-04T06:23:59.625Z,8.60
2022-11-04T06:26:28.956Z,8.70
2022-11-04T06:28:57.195Z,8.80
2022-11-04T06:31:24.188Z,8.80
2022-11-04T06:33:51.591Z,8.80
2022-11-04T06:36:18.561Z,8.70
2022-11-04T06:38:45.926Z,8.80
2022-11-04T06:41:16.935Z,8.70
2022-11-04T06:43:44.505Z,8.80
2022-11-04T06:46:37.456Z,8.90
2022-11-04T06:49:07.645Z,9.00
2022-11-04T06:51:34.587Z,8.90
2022-11-04T06:54:02.100Z,8.90
2022-11-04T06:56:29.226Z,9.00
2022-11-04T06:58:56.940Z,9.10
2022-11-04T07:01:28.162Z,9.20
2022-11-04T07:03:59.303Z,9.30
2022-11-04T07:06:29.181Z,9.30
2022-11-04T07:09:00.316Z,9.20
2022-11-04T07:11:32.081Z,9.00
2022-11-04T07:13:59.575Z,8.90
2022-11-04T07:16:26.703Z,9.00
2022-11-04T07:18:55.746Z,9.20
2022-11-04T07:21:23.711Z,9.30
2022-11-04T07:23:51.481Z,9.30
2022-11-04T07:26:18.916Z,9.30
2022-11-04T07:28:46.237Z,9.20
2022-11-04T07:31:14.910Z,9.20
2022-11-04T07:33:42.492Z,9.20
2022-11-04T07:36:13.411Z,9.30
2022-11-04T07:38:40.688Z,9.40
2022-11-04T07:41:08.331Z,9.50
2022-11-04T07:43:35.569Z,9.70
2022-11-04T07:46:14.659Z,9.80
2022-11-04T07:48:42.008Z,9.90
2022-11-04T07:51:16.267Z,10.10
2022-11-04T07:53:44.220Z,10.20
2022-11-04T07:56:13.516Z,10.30
2022-11-04T07:58:41.919Z,10.30
2022-11-04T08:01:16.412Z,10.40
2022-11-04T08:03:44.553Z,10.40
2022-11-04T08:06:14.761Z,10.50
2022-11-04T08:08:43.578Z,10.50
2022-11-04T08:11:18.187Z,10.60
2022-11-04T08:13:47.006Z,10.60
2022-11-04T08:16:21.100Z,10.80
2022-11-04T08:18:52.106Z,10.80
2022-11-04T08:21:21.008Z,10.80
2022-11-04T08:23:48.362Z,10.90
2022-11-04T08:26:19.314Z,11.00
2022-11-04T08:28:47.691Z,11.10
2022-11-04T08:31:21.119Z,11.40
2022-11-04T08:33:48.713Z,11.60
2022-11-04T08:36:23.902Z,11.70
2022-11-04T08:38:53.807Z,11.80
2022-11-04T08:41:29.181Z,12.00
2022-11-04T08:44:01.071Z,12.30
2022-11-04T08:46:29.289Z,12.80
2022-11-04T08:48:56.629Z,12.90
2022-11-04T08:51:27.589Z,13.20
2022-11-04T08:53:55.198Z,13.30
2022-11-04T08:56:30.164Z,13.70
2022-11-04T08:58:59.872Z,13.90
2022-11-04T09:01:32.757Z,14.30
2022-11-04T09:04:05.762Z,14.60
2022-11-04T09:06:40.404Z,15.10
2022-11-04T09:09:12.432Z,15.20
2022-11-04T09:11:42.267Z,15.50
2022-11-04T09:14:11.240Z,15.40
2022-11-04T09:16:41.357Z,15.70
2022-11-04T09:19:09.251Z,15.90
2022-11-04T09:21:36.397Z,16.10
2022-11-04T09:24:05.076Z,16.20
2022-11-04T09:26:32.230Z,16.40
2022-11-04T09:29:00.461Z,16.50
2022-11-04T09:31:30.380Z,16.60
2022-11-04T09:33:58.195Z,16.80
2022-11-04T09:36:25.830Z,16.80
2022-11-04T09:38:53.991Z,16.70
2022-11-04T09:42:03.183Z,16.60
2022-11-04T09:45:20.740Z,16.40
2022-11-04T09:47:50.725Z,16.00
2022-11-04T09:50:26.608Z,15.80
2022-11-04T09:53:17.722Z,15.80
2022-11-04T09:55:52.711Z,15.70
2022-11-04T09:58:19.986Z,15.70
2022-11-04T10:01:21.076Z,15.80
2022-11-04T10:04:03.269Z,16.10
2022-11-04T10:07:05.747Z,16.50
2022-11-04T10:09:41.966Z,17.00
2022-11-04T10:13:04.391Z,17.30
2022-11-04T10:15:53.704Z,17.70
2022-11-04T10:18:48.626Z,17.50
2022-11-04T10:21:54.027Z,17.40
2022-11-04T10:24:42.496Z,17.80
2022-11-04T10:27:30.687Z,17.90
2022-11-04T10:30:06.775Z,18.20
2022-11-04T10:32:46.035Z,18.30
2022-11-04T10:35:13.241Z,18.30
2022-11-04T10:37:40.417Z,18.50
2022-11-04T10:40:37.777Z,18.40
2022-11-04T10:43:14.063Z,18.20
2022-11-04T10:46:18.887Z,18.30
2022-11-04T10:49:50.568Z,18.40
2022-11-04T10:52:33.399Z,18.30
2022-11-04T10:55:02.160Z,18.10
2022-11-04T10:57:30.890Z,18.10
2022-11-04T11:00:05.466Z,18.00
2022-11-04T11:02:47.126Z,17.90
2022-11-04T11:05:20.164Z,17.90
2022-11-04T11:07:52.841Z,17.80
2022-11-04T11:10:30.829Z,17.70
2022-11-04T11:13:03.571Z,17.70
2022-11-04T11:15:39.257Z,17.70
2022-11-04T11:18:06.446Z,17.80
2022-11-04T11:20:37.604Z,17.70
2022-11-04T11:23:10.000Z,17.70
2022-11-04T11:25:50.344Z,17.80
2022-11-04T11:28:26.564Z,17.60
2022-11-04T11:30:59.948Z,17.50
2022-11-04T11:33:36.838Z,17.50
2022-11-04T11:36:18.113Z,17.50
2022-11-04T11:39:16.931Z,17.40
2022-11-04T11:42:06.360Z,17.40
2022-11-04T11:44:44.616Z,17.40
2022-11-04T11:47:28.115Z,17.40
2022-11-04T11:50:30.643Z,17.40
2022-11-04T11:53:18.419Z,17.40
2022-11-04T11:55:59.689Z,17.50
2022-11-04T12:02:04.677Z,17.50
2022-11-04T12:19:36.123Z,17.30
2022-11-04T12:22:20.318Z,17.30
2022-11-04T12:25:09.419Z,17.30
2022-11-04T12:27:56.290Z,17.20
2022-11-04T12:30:32.607Z,17.20
2022-11-04T12:33:25.842Z,17.10
2022-11-04T12:36:21.103Z,17.10
2022-11-04T12:39:08.724Z,17.10
2022-11-04T12:42:21.085Z,17.10
2022-11-04T12:45:11.396Z,17.00
2022-11-04T14:46:21.476Z,16.20
2022-11-04T14:50:47.717Z,16.20
2022-11-04T15:24:39.665Z,15.70
2022-11-04T15:28:17.477Z,15.70
2022-11-04T15:42:38.342Z,15.60
2022-11-04T16:03:07.945Z,14.70
2022-11-04T16:05:42.830Z,14.60
2022-11-04T16:26:50.866Z,14.70
2022-11-04T16:30:04.672Z,14.80
2022-11-04T18:22:22.214Z,14.10
2022-11-04T19:33:05.936Z,13.80
2022-11-04T19:41:25.869Z,13.50
2022-11-04T19:58:28.954Z,13.10
2022-11-04T20:01:21.525Z,13.10
2022-11-04T20:28:30.086Z,13.40
2022-11-04T20:31:13.117Z,13.40
2022-11-04T21:08:46.869Z,13.30
2022-11-04T21:11:31.846Z,13.30
2022-11-04T21:14:13.733Z,13.40
2022-11-04T21:16:58.527Z,13.30
2022-11-04T21:19:25.664Z,13.30
2022-11-04T21:27:41.747Z,13.30
2022-11-04T21:30:12.854Z,13.30
2022-11-04T21:32:39.861Z,13.30
2022-11-04T21:35:08.103Z,13.30
2022-11-04T21:37:37.115Z,13.30
2022-11-04T21:40:05.411Z,13.30
2022-11-04T21:42:32.399Z,13.20
2022-11-04T21:44:59.535Z,13.00
2022-11-04T21:47:26.652Z,13.10
2022-11-04T21:49:53.829Z,13.10
2022-11-04T21:52:20.800Z,13.10
2022-11-04T22:32:46.451Z,13.00
2022-11-04T23:08:34.982Z,13.00
2022-11-04T23:11:38.413Z,13.00
2022-11-04T23:50:27.873Z,12.90
